Dayton, PA

2:07 AM EST on February 28, 2015 (GMT -0500)
Rural Valley | Change Station
CLOSE
Current Station
Personal Weather Station
Location: Rural Valley, PA
Elevation: 1133 ft
Nearby Weather Stations

Elev 1133 ft 40.76 °N, 79.32 °W | Updated 34 seconds ago

Partly Cloudy
Partly Cloudy
-12.3 °F
Feels Like -12 °F
N
0.0
Wind Variable Wind from North
Gusts 0.0 mph

Today
High -- | Low -- °F
--% Chance of Precip.
Yesterday
High -- | Low -- °F
Precip. -- in
6:52 AM 6:06 PM
Waxing Gibbous, 75% visible
Pressure 30.66 in
Visibility 10.0 miles
Clouds Clear
Windchill -12 °F
Dew Point -15 °F
Humidity 88%
Rainfall 0.00 in
Snow Depth Not available.
UV 0 out of 12
Pollen .50 out of 12
Air Quality Not available.
Flu Activity Not available.
METAR KIDI 280655Z AUTO 00000KT 10SM CLR M20/M23 A3066 RMK A01

More Conditions Fewer Conditions

Pressure 30.66 in
Visibility 10.0 miles
Clouds Clear
Windchill -12 °F
Dew Point -15 °F
Humidity 88%
Rainfall 0.00 in
Snow Depth Not available.
UV 0 out of 12
Pollen .50 out of 12
Air Quality Not available.
Flu Activity Not available.
METAR KIDI 280655Z AUTO 00000KT 10SM CLR M20/M23 A3066 RMK A01

More Conditions Fewer Conditions

10-Day Weather Forecast

Almanac

Astronomy

Feb. 28, 2015 Rise Set
Actual Time
Civil Twilight
Nautical Twilight
Astronomical Twilight
Moon
Length of Visible Light
Length of Day
Tomorrow will be .
, % of the Moon is Illuminated

Today's Extremes

State Highs State Lows

Community

WunderPhotos

Upload Photos

1,800,979 photos uploaded!

WunderBlogs® & News

Nearby

Air Quality

  Air Quality AQ Index Pollutant
Not available.

Snow Depth

Station Depth Elevation

Earthquake Activity

City Distance Mag. Time & Date
Minimum magnitude displayed is 2.5.

Coastal Water Temperatures

Place Temperature

Nearby Weather Stations